メインページ
METAR-TAF:

METAR-TAF

空港 :

セントジョンズ, ニューファンドランド・ラブラドール州, カナダ

セントジョンズ国際空港

緯度: 47-37N, 経度: 052-44W, 海抜: 134m

現時点の気象観測

当レポートは35分前の16:00(UTC)に作成
西/北西の風 16kt、最大25ktの突風を伴う
気温 3°C
湿度 60%
気圧 1018 hPa
視程: 24.1km
高度12000ftの雲はほとんどない

METAR: CYYT 221600Z 30016G25KT 15SM FEW120 03/M04 A3005 RMK AC2 SLP184

時間: 13:05 (16:35 UTC)

予報

当レポートは4時間57分前の11:38(UTC)に作成
予報は22日の 12時(UTC)から 23日の 12時(UTC)まで有効
北西の風 15kt、最大25ktの突風を伴う
視程: 10km
高度2000ftの雲は散在している
22日の 12時(UTC)から 22日の 14時(UTC)まで一時的に
高度2000ftの千切れ雲あり
22日の 1400時(UTC)から
西/北西の風 15kt、最大25ktの突風を伴う
視程: 10km
晴天
22日の 19時(UTC)から 22日の 21時(UTC)まで徐々に
北西の風 10kt
23日の 0600時(UTC)から
の風 5kt
視程: 10km
高度24000ftの千切れ雲あり
23日の 0800時(UTC)から
の風 12kt、最大22ktの突風を伴う
視程: 9.7km
高度800ftの曇り
23日の 1100時(UTC)から
の風 15kt、最大25ktの突風を伴う
視程: 3.2km
高度400ftの曇り

TAF: CYYT 221138Z 2212/2312 31015G25KT P6SM SCT020 TEMPO 2212/2214 BKN020 FM221400 30015G25KT P6SM SKC BECMG 2219/2221 31010KT FM230600 18005KT P6SM BKN240 FM230800 17012G22KT 6SM BR OVC008 FM231100 17015G25KT 2SM BR OVC004 RMK NXT FCST BY 221800Z

4,000以上の空港の気象観測と天気予報(METAR報とTAF報)

利用可能な観測所は地図上に黄色い丸と赤い丸で示す。

丸の上にカーソルを重ねると観測所名を参照できる。

次にクリックすると気象観測と天気予報を参照できる。

マップの切り替え:黒色「×」印の緑ボタンをクリックして拡大、「-」印の緑ボタンをクリックして縮小、緑色の三角印をクリックして隣りの地図に切り替え


METAR-TAF: